createdAt,value
2022-08-18T00:01:14.805Z,100087.97
2022-08-18T00:03:57.048Z,100094.44
2022-08-18T00:06:31.096Z,100095.56
2022-08-18T00:09:00.303Z,100095.19
2022-08-18T00:11:41.274Z,100088.91
2022-08-18T00:14:21.660Z,100094.78
2022-08-18T00:16:53.326Z,100093.13
2022-08-18T00:19:27.835Z,100088.28
2022-08-18T00:22:14.631Z,100089.16
2022-08-18T00:24:47.578Z,100098.38
2022-08-18T00:27:23.290Z,100101.53
2022-08-18T00:29:54.005Z,100088.75
2022-08-18T00:32:28.629Z,100099.00
2022-08-18T00:34:56.617Z,100102.53
2022-08-18T00:37:24.824Z,100098.34
2022-08-18T00:39:53.880Z,100099.78
2022-08-18T00:42:28.878Z,100087.16
2022-08-18T00:45:04.825Z,100106.25
2022-08-18T00:47:43.026Z,100091.31
2022-08-18T00:50:18.688Z,100098.69
2022-08-18T00:52:51.949Z,100099.75
2022-08-18T00:55:22.185Z,100102.28
2022-08-18T00:57:52.406Z,100090.75
2022-08-18T01:00:19.904Z,100099.78
2022-08-18T01:02:53.543Z,100086.38
2022-08-18T01:05:34.147Z,100100.91
2022-08-18T01:08:01.483Z,100096.91
2022-08-18T01:10:28.977Z,100095.59
2022-08-18T01:12:57.960Z,100080.72
2022-08-18T01:15:30.469Z,100090.16
2022-08-18T01:18:20.623Z,100085.09
2022-08-18T01:21:24.277Z,100099.75
2022-08-18T01:23:53.786Z,100093.44
2022-08-18T01:26:22.844Z,100106.88
2022-08-18T01:28:50.753Z,100098.84
2022-08-18T01:31:42.022Z,100093.34
2022-08-18T01:34:24.845Z,100084.34
2022-08-18T01:36:54.250Z,100079.91
2022-08-18T01:41:23.248Z,100099.41
2022-08-18T01:42:11.565Z,100092.50
2022-08-18T01:44:41.798Z,100094.16
2022-08-18T01:47:11.678Z,100075.31
2022-08-18T01:49:43.298Z,100085.78
2022-08-18T01:52:11.486Z,100087.88
2022-08-18T01:54:39.266Z,100079.06
2022-08-18T01:57:13.546Z,100069.03
2022-08-18T01:59:42.684Z,100060.25
2022-08-18T02:02:18.160Z,100075.75
2022-08-18T02:04:47.612Z,100065.91
2022-08-18T02:07:15.302Z,100079.31
2022-08-18T02:09:43.825Z,100066.31
2022-08-18T02:12:11.514Z,100086.25
2022-08-18T02:14:39.198Z,100078.28
2022-08-18T02:17:09.467Z,100059.41
2022-08-18T02:19:47.418Z,100071.59
2022-08-18T02:22:18.354Z,100088.78
2022-08-18T02:24:46.223Z,100078.75
2022-08-18T02:27:15.031Z,100066.53
2022-08-18T02:29:42.966Z,100070.13
2022-08-18T02:32:10.397Z,100087.34
2022-08-18T02:34:37.796Z,100085.44
2022-08-18T02:37:05.377Z,100088.38
2022-08-18T02:39:35.880Z,100085.25
2022-08-18T02:42:03.556Z,100071.78
2022-08-18T02:44:32.096Z,100064.47
2022-08-18T02:46:59.842Z,100070.53
2022-08-18T02:49:27.114Z,100076.00
2022-08-18T02:51:54.769Z,100067.19
2022-08-18T02:54:23.668Z,100066.38
2022-08-18T02:56:52.882Z,100057.59
2022-08-18T02:59:24.433Z,100055.03
2022-08-18T03:01:55.694Z,100074.53
2022-08-18T03:04:29.495Z,100058.41
2022-08-18T03:07:00.593Z,100066.00
2022-08-18T03:09:29.584Z,100078.81
2022-08-18T03:11:57.168Z,100089.28
2022-08-18T03:14:25.555Z,100086.75
2022-08-18T03:16:55.243Z,100080.88
2022-08-18T03:19:25.337Z,100098.47
2022-08-18T03:21:53.061Z,100090.94
2022-08-18T03:24:22.811Z,100100.59
2022-08-18T03:26:52.951Z,100085.09
2022-08-18T03:29:21.718Z,100080.88
2022-08-18T03:31:49.949Z,100085.91
2022-08-18T03:34:19.998Z,100089.72
2022-08-18T03:36:49.333Z,100073.75
2022-08-18T03:39:17.606Z,100093.22
2022-08-18T03:41:58.556Z,100082.09
2022-08-18T03:44:31.396Z,100097.03
2022-08-18T03:46:59.457Z,100102.09
2022-08-18T03:49:27.441Z,100097.66
2022-08-18T03:51:55.355Z,100087.56
2022-08-18T03:54:22.893Z,100106.06
2022-08-18T03:56:50.154Z,100101.41
2022-08-18T03:59:22.686Z,100095.13
2022-08-18T04:01:52.185Z,100112.56
2022-08-18T04:04:22.780Z,100102.25
2022-08-18T04:07:04.786Z,100106.22
2022-08-18T04:09:34.526Z,100098.69
2022-08-18T04:12:16.579Z,100113.16
2022-08-18T04:14:48.645Z,100114.00
2022-08-18T04:17:23.659Z,100104.38
2022-08-18T04:19:55.636Z,100106.38
2022-08-18T04:22:24.976Z,100102.34
2022-08-18T04:24:53.129Z,100106.91
2022-08-18T04:27:22.131Z,100115.75
2022-08-18T04:29:49.962Z,100103.50
2022-08-18T04:32:17.583Z,100112.81
2022-08-18T04:34:45.289Z,100121.97
2022-08-18T04:37:14.022Z,100111.28
2022-08-18T04:39:42.663Z,100126.56
2022-08-18T04:42:10.425Z,100121.97
2022-08-18T04:44:38.061Z,100120.97
2022-08-18T04:47:07.696Z,100123.19
2022-08-18T04:49:35.480Z,100137.44
2022-08-18T04:52:40.320Z,100117.34
2022-08-18T04:55:09.905Z,100118.84
2022-08-18T04:57:37.207Z,100132.34
2022-08-18T05:00:07.087Z,100125.69
2022-08-18T05:02:35.141Z,100135.91
2022-08-18T05:05:04.304Z,100146.38
2022-08-18T05:07:32.245Z,100125.00
2022-08-18T05:09:59.913Z,100130.13
2022-08-18T05:12:27.294Z,100126.09
2022-08-18T05:14:57.430Z,100133.09
2022-08-18T05:17:29.033Z,100134.81
2022-08-18T05:20:00.825Z,100142.19
2022-08-18T05:22:37.533Z,100142.47
2022-08-18T05:25:05.449Z,100140.72
2022-08-18T05:27:39.191Z,100148.47
2022-08-18T05:30:07.969Z,100132.63
2022-08-18T05:32:48.687Z,100127.69
2022-08-18T05:35:36.624Z,100119.22
2022-08-18T05:38:24.592Z,100144.34
2022-08-18T05:41:06.642Z,100125.88
2022-08-18T05:43:36.911Z,100134.22
2022-08-18T05:46:19.196Z,100145.59
2022-08-18T05:48:50.465Z,100138.94
2022-08-18T05:51:29.478Z,100151.88
2022-08-18T05:54:16.532Z,100145.00
2022-08-18T05:56:47.144Z,100141.84
2022-08-18T05:59:20.465Z,100140.84
2022-08-18T06:01:53.630Z,100136.00
2022-08-18T06:04:31.197Z,100140.06
2022-08-18T06:07:02.635Z,100133.06
2022-08-18T06:09:40.687Z,100137.22
2022-08-18T06:12:19.314Z,100143.81
2022-08-18T06:14:46.960Z,100153.09
2022-08-18T06:17:42.329Z,100145.03
2022-08-18T06:20:23.157Z,100157.38
2022-08-18T06:23:05.858Z,100154.34
2022-08-18T06:26:01.711Z,100148.78
2022-08-18T06:28:43.678Z,100162.06
2022-08-18T06:31:27.458Z,100157.56
2022-08-18T06:34:13.016Z,100149.53
2022-08-18T06:36:52.511Z,100163.97
2022-08-18T06:39:32.135Z,100152.72
2022-08-18T06:42:00.144Z,100145.34
2022-08-18T06:44:49.051Z,100158.50
2022-08-18T06:47:28.717Z,100163.97
2022-08-18T06:50:31.024Z,100167.91
2022-08-18T06:53:05.032Z,100162.19
2022-08-18T06:55:43.838Z,100169.75
2022-08-18T06:58:17.470Z,100172.59
2022-08-18T07:01:07.917Z,100172.19
2022-08-18T07:03:51.416Z,100169.91
2022-08-18T07:06:21.543Z,100176.34
2022-08-18T07:09:20.660Z,100170.53
2022-08-18T07:12:29.058Z,100171.13
2022-08-18T07:15:02.711Z,100172.25
2022-08-18T07:17:43.668Z,100171.59
2022-08-18T07:20:24.936Z,100167.59
2022-08-18T07:23:00.216Z,100178.41
2022-08-18T07:25:38.670Z,100175.25
2022-08-18T07:28:31.642Z,100171.09
2022-08-18T07:31:16.892Z,100163.06
2022-08-18T07:33:51.526Z,100160.53
2022-08-18T07:36:24.490Z,100168.19
2022-08-18T07:38:57.161Z,100159.03
2022-08-18T07:41:35.783Z,100171.44
2022-08-18T07:44:27.842Z,100171.19
2022-08-18T07:47:01.270Z,100175.16
2022-08-18T07:49:35.570Z,100176.41
2022-08-18T07:52:05.714Z,100161.47
2022-08-18T07:54:54.810Z,100175.97
2022-08-18T07:57:48.816Z,100176.16
2022-08-18T08:00:57.666Z,100178.38
2022-08-18T08:03:58.700Z,100167.41
2022-08-18T08:06:47.705Z,100170.72
2022-08-18T08:09:40.928Z,100172.78
2022-08-18T08:12:29.347Z,100171.16
2022-08-18T08:15:32.020Z,100175.81
2022-08-18T08:18:12.875Z,100177.09
2022-08-18T08:20:55.076Z,100179.41
2022-08-18T08:23:45.519Z,100174.72
2022-08-18T08:26:42.287Z,100182.66
2022-08-18T08:29:36.449Z,100167.63
2022-08-18T08:32:10.921Z,100168.91
2022-08-18T08:35:48.889Z,100172.81
2022-08-18T08:38:40.010Z,100172.56
2022-08-18T08:41:11.185Z,100167.28
2022-08-18T08:43:45.596Z,100166.25
2022-08-18T08:46:30.024Z,100181.25
2022-08-18T08:49:17.096Z,100171.63
2022-08-18T08:51:56.761Z,100165.63
2022-08-18T08:54:30.837Z,100176.97
2022-08-18T08:57:01.360Z,100170.31
2022-08-18T08:59:28.894Z,100166.63
2022-08-18T09:02:32.266Z,100173.19
2022-08-18T09:05:40.173Z,100165.72
2022-08-18T09:08:42.993Z,100173.13
2022-08-18T09:11:13.387Z,100160.31
2022-08-18T09:13:46.716Z,100160.50
2022-08-18T09:16:43.789Z,100169.16
2022-08-18T09:19:32.840Z,100171.97
2022-08-18T09:22:01.693Z,100169.00
2022-08-18T09:24:33.126Z,100170.91
2022-08-18T09:27:03.209Z,100169.25
2022-08-18T09:29:43.913Z,100167.28
2022-08-18T09:32:24.230Z,100159.97
2022-08-18T09:35:23.542Z,100161.91
2022-08-18T09:38:33.595Z,100160.06
2022-08-18T09:41:29.378Z,100155.94
2022-08-18T09:44:21.436Z,100153.38
2022-08-18T09:46:56.113Z,100152.84
2022-08-18T09:49:31.054Z,100132.38
2022-08-18T09:55:18.085Z,100147.78
2022-08-18T09:57:47.993Z,100150.44
2022-08-18T10:00:28.083Z,100154.41
2022-08-18T10:02:56.388Z,100159.53
2022-08-18T10:05:31.213Z,100157.28
2022-08-18T10:08:14.863Z,100170.63
2022-08-18T10:11:01.173Z,100141.16
2022-08-18T10:14:08.098Z,100145.94
2022-08-18T10:19:50.273Z,100150.81
2022-08-18T10:22:37.519Z,100154.72
2022-08-18T10:25:22.032Z,100156.91
2022-08-18T10:27:57.238Z,100155.81
2022-08-18T10:30:34.426Z,100154.66
2022-08-18T10:33:17.937Z,100156.13
2022-08-18T10:35:57.881Z,100160.25
2022-08-18T10:38:31.036Z,100152.53
2022-08-18T10:41:09.814Z,100137.75
2022-08-18T10:43:57.768Z,100153.13
2022-08-18T10:46:40.402Z,100157.16
2022-08-18T10:49:13.462Z,100147.84
2022-08-18T10:51:59.984Z,100154.94
2022-08-18T10:54:54.027Z,100143.59
2022-08-18T10:57:36.120Z,100141.19
2022-08-18T11:03:51.263Z,100129.66
2022-08-18T11:06:24.913Z,100138.53
2022-08-18T11:09:01.566Z,100132.56
2022-08-18T11:11:52.878Z,100129.94
2022-08-18T11:14:51.123Z,100129.59
2022-08-18T11:17:35.855Z,100123.59
2022-08-18T11:20:11.055Z,100123.44
2022-08-18T11:22:38.310Z,100120.53
2022-08-18T11:25:20.668Z,100116.41
2022-08-18T11:27:49.241Z,100111.38
2022-08-18T11:30:18.872Z,100111.31
2022-08-18T11:32:52.263Z,100111.59
2022-08-18T11:35:30.206Z,100109.19
2022-08-18T11:38:01.969Z,100109.56
2022-08-18T11:41:10.397Z,100114.16
2022-08-18T11:43:41.596Z,100100.81
2022-08-18T11:46:29.485Z,100105.50
2022-08-18T11:49:01.046Z,100103.06
2022-08-18T11:51:32.509Z,100103.94
2022-08-18T11:54:19.062Z,100102.84
2022-08-18T11:56:46.468Z,100103.09
2022-08-18T11:59:53.140Z,100098.69
2022-08-18T12:02:17.963Z,100100.72
2022-08-18T12:04:51.476Z,100087.63
2022-08-18T12:07:30.974Z,100098.75
2022-08-18T12:10:28.809Z,100092.13
2022-08-18T12:13:00.480Z,100087.44
2022-08-18T12:15:44.989Z,100076.69
2022-08-18T12:18:18.937Z,100080.66
2022-08-18T12:20:58.821Z,100066.41
2022-08-18T12:23:26.908Z,100075.22
2022-08-18T12:25:54.170Z,100084.06
2022-08-18T12:28:22.343Z,100074.38
2022-08-18T12:30:56.362Z,100075.75
2022-08-18T12:33:25.554Z,100079.28
2022-08-18T12:36:04.185Z,100078.94
2022-08-18T12:38:33.318Z,100072.47
2022-08-18T12:41:05.490Z,100070.22
2022-08-18T12:43:32.728Z,100078.09
2022-08-18T12:46:02.524Z,100078.75
2022-08-18T12:48:31.839Z,100069.41
2022-08-18T12:50:59.975Z,100066.28
2022-08-18T12:53:30.587Z,100056.84
2022-08-18T12:56:21.716Z,100065.00
2022-08-18T12:58:49.907Z,100061.03
2022-08-18T13:01:23.326Z,100044.16
2022-08-18T13:04:13.240Z,100062.34
2022-08-18T13:06:59.889Z,100064.56
2022-08-18T13:09:34.939Z,100060.88
2022-08-18T13:12:17.340Z,100055.63
2022-08-18T13:14:46.015Z,100070.50
2022-08-18T13:17:29.995Z,100065.69
2022-08-18T13:20:09.202Z,100064.28
2022-08-18T13:22:42.893Z,100066.78
2022-08-18T13:25:32.164Z,100064.72
2022-08-18T13:28:02.025Z,100058.13
2022-08-18T13:30:32.428Z,100054.50
2022-08-18T13:33:02.486Z,100047.59
2022-08-18T13:35:38.536Z,100060.97
2022-08-18T13:38:17.409Z,100064.16
2022-08-18T13:40:49.104Z,100067.38
2022-08-18T13:43:21.088Z,100064.41
2022-08-18T13:45:53.404Z,100067.84
2022-08-18T13:48:25.668Z,100064.59
2022-08-18T13:50:55.728Z,100070.22
2022-08-18T13:53:27.180Z,100058.69
2022-08-18T13:55:58.536Z,100049.69
2022-08-18T13:58:27.708Z,100049.72
2022-08-18T14:01:22.654Z,100062.66
2022-08-18T14:03:49.969Z,100055.78
2022-08-18T14:06:22.516Z,100054.97
2022-08-18T14:08:53.104Z,100048.38
2022-08-18T14:11:32.792Z,100056.97
2022-08-18T14:14:02.078Z,100061.41
2022-08-18T14:16:30.791Z,100057.94
2022-08-18T14:19:17.648Z,100052.25
2022-08-18T14:22:11.117Z,100052.19
2022-08-18T14:24:59.408Z,100053.16
2022-08-18T14:27:35.178Z,100036.53
2022-08-18T14:30:08.724Z,100050.13
2022-08-18T14:32:37.008Z,100047.63
2022-08-18T14:35:32.060Z,100059.19
2022-08-18T14:38:09.813Z,100059.44
2022-08-18T14:40:43.166Z,100058.13
2022-08-18T14:43:16.169Z,100045.41
2022-08-18T14:45:48.837Z,100052.34
2022-08-18T14:48:20.360Z,100065.28
2022-08-18T14:50:50.195Z,100065.78
2022-08-18T14:53:20.295Z,100062.47
2022-08-18T14:55:52.169Z,100074.31
2022-08-18T14:58:20.811Z,100066.78
2022-08-18T15:00:53.352Z,100058.88
2022-08-18T15:03:28.210Z,100063.34
2022-08-18T15:06:00.557Z,100058.63
2022-08-18T15:08:28.820Z,100059.50
2022-08-18T15:10:57.421Z,100063.19
2022-08-18T15:13:26.339Z,100063.28
2022-08-18T15:16:02.175Z,100062.63
2022-08-18T15:18:30.009Z,100068.75
2022-08-18T15:21:19.704Z,100070.38
2022-08-18T15:24:22.653Z,100063.91
2022-08-18T15:26:57.486Z,100053.44
2022-08-18T15:29:29.009Z,100061.72
2022-08-18T15:32:05.831Z,100062.72
2022-08-18T15:34:47.023Z,100040.97
2022-08-18T15:37:20.388Z,100050.50
2022-08-18T15:40:30.462Z,100043.56
2022-08-18T15:43:01.599Z,100048.25
2022-08-18T15:45:43.182Z,100050.63
2022-08-18T15:48:24.993Z,100040.81
2022-08-18T15:50:53.228Z,100039.53
2022-08-18T15:53:23.124Z,100040.88
2022-08-18T15:55:50.636Z,100042.25
2022-08-18T15:58:22.485Z,100031.91
2022-08-18T16:00:54.592Z,100031.72
2022-08-18T16:03:21.904Z,100034.41
2022-08-18T16:05:52.779Z,100023.06
2022-08-18T16:08:23.653Z,100036.94
2022-08-18T16:10:52.018Z,100037.47
2022-08-18T16:13:20.086Z,100041.88
2022-08-18T16:15:48.548Z,100021.63
2022-08-18T16:18:17.871Z,100034.38
2022-08-18T16:20:45.313Z,100025.94
2022-08-18T16:23:13.319Z,100024.22
2022-08-18T16:25:42.211Z,100017.47
2022-08-18T16:28:10.604Z,100017.47
2022-08-18T16:30:37.996Z,100023.41
2022-08-18T16:33:06.956Z,100008.72
2022-08-18T16:35:35.203Z,100006.72
2022-08-18T16:38:09.632Z,100011.97
2022-08-18T16:40:37.686Z,100018.34
2022-08-18T16:43:06.823Z,100007.25
2022-08-18T16:45:36.763Z,100007.25
2022-08-18T16:48:04.410Z,100013.50
2022-08-18T16:50:31.922Z,100009.72
2022-08-18T16:52:59.133Z,100008.84
2022-08-18T16:55:26.819Z,100019.03
2022-08-18T16:58:15.620Z,100019.25
2022-08-18T17:01:01.974Z,100030.41
2022-08-18T17:03:48.168Z,100027.31
2022-08-18T17:06:17.709Z,100031.09
2022-08-18T17:08:45.602Z,100032.13
2022-08-18T17:11:16.524Z,100033.56
2022-08-18T17:13:44.789Z,100036.34
2022-08-18T17:16:13.490Z,100030.25
2022-08-18T17:18:41.486Z,100031.03
2022-08-18T17:21:11.805Z,100023.84
2022-08-18T17:23:39.882Z,100020.97
2022-08-18T17:26:12.857Z,100024.09
2022-08-18T17:28:50.513Z,100018.03
2022-08-18T17:31:24.719Z,100025.19
2022-08-18T17:33:57.392Z,100031.78
2022-08-18T17:36:41.125Z,100030.59
2022-08-18T17:39:13.237Z,100027.00
2022-08-18T17:42:02.353Z,100028.34
2022-08-18T17:44:31.659Z,100040.78
2022-08-18T17:47:02.466Z,100042.09
2022-08-18T17:50:26.979Z,100042.00
2022-08-18T17:53:05.507Z,100046.53
2022-08-18T17:55:41.409Z,100026.72
2022-08-18T17:58:20.498Z,100029.44
2022-08-18T18:00:48.077Z,100033.63
2022-08-18T18:03:15.633Z,100030.53
2022-08-18T18:05:49.779Z,100026.59
2022-08-18T18:08:17.717Z,100031.63
2022-08-18T18:11:04.383Z,100034.59
2022-08-18T18:13:33.709Z,100021.22
2022-08-18T18:16:35.449Z,100023.25
2022-08-18T18:19:06.447Z,100022.66
2022-08-18T18:21:55.414Z,100027.22
2022-08-18T18:24:31.770Z,100021.00
2022-08-18T18:26:59.143Z,100030.28
2022-08-18T18:29:33.271Z,100028.25
2022-08-18T18:32:25.315Z,100022.06
2022-08-18T18:35:07.321Z,100027.22
2022-08-18T18:38:00.595Z,100036.38
2022-08-18T18:40:30.744Z,100040.91
2022-08-18T18:43:17.855Z,100037.09
2022-08-18T18:46:07.377Z,100060.56
2022-08-18T18:48:59.516Z,100052.94
2022-08-18T18:51:40.916Z,100050.53
2022-08-18T18:54:26.289Z,100061.59
2022-08-18T18:56:56.782Z,100058.88
2022-08-18T18:59:42.633Z,100054.47
2022-08-18T19:02:33.978Z,100061.38
2022-08-18T19:05:08.500Z,100054.59
2022-08-18T19:07:57.382Z,100048.06
2022-08-18T19:10:33.851Z,100039.78
2022-08-18T19:13:02.914Z,100049.13
2022-08-18T19:15:34.324Z,100046.38
2022-08-18T19:18:34.919Z,100039.06
2022-08-18T19:22:03.535Z,100034.66
2022-08-18T19:24:04.876Z,100037.41
2022-08-18T19:26:39.387Z,100023.06
2022-08-18T19:29:15.463Z,100027.41
2022-08-18T19:31:48.715Z,100026.44
2022-08-18T19:34:30.174Z,100033.69
2022-08-18T19:37:27.571Z,100031.44
2022-08-18T19:40:21.413Z,100031.38
2022-08-18T19:43:01.413Z,100031.84
2022-08-18T19:45:46.615Z,100040.75
2022-08-18T19:48:39.275Z,100040.47
2022-08-18T19:51:13.488Z,100043.31
2022-08-18T19:53:47.325Z,100041.66
2022-08-18T19:56:38.979Z,100039.38
2022-08-18T19:59:35.459Z,100035.19
2022-08-18T20:02:35.389Z,100043.88
2022-08-18T20:05:30.168Z,100041.59
2022-08-18T20:08:09.783Z,100037.56
2022-08-18T20:10:42.859Z,100046.63
2022-08-18T20:13:33.885Z,100039.06
2022-08-18T20:16:10.731Z,100054.69
2022-08-18T20:18:42.831Z,100052.19
2022-08-18T20:21:16.070Z,100055.63
2022-08-18T20:24:38.453Z,100054.53
2022-08-18T20:27:35.921Z,100052.25
2022-08-18T20:30:18.432Z,100047.03
2022-08-18T20:33:07.457Z,100053.94
2022-08-18T20:35:51.935Z,100052.88
2022-08-18T20:38:29.192Z,100057.50
2022-08-18T20:40:59.676Z,100057.50
2022-08-18T20:43:31.982Z,100054.31
2022-08-18T20:46:36.208Z,100047.47
2022-08-18T20:49:35.550Z,100044.75
2022-08-18T20:52:14.174Z,100047.94
2022-08-18T20:54:58.566Z,100044.22
2022-08-18T20:57:35.208Z,100046.94
2022-08-18T21:00:14.273Z,100045.94
2022-08-18T21:02:52.111Z,100044.28
2022-08-18T21:05:31.657Z,100057.50
2022-08-18T21:08:16.342Z,100048.09
2022-08-18T21:11:08.266Z,100050.06
2022-08-18T21:13:41.390Z,100049.69
2022-08-18T21:16:10.912Z,100049.91
2022-08-18T21:18:40.367Z,100044.06
2022-08-18T21:21:26.853Z,100046.19
2022-08-18T21:23:58.155Z,100043.69
2022-08-18T21:26:27.265Z,100034.56
2022-08-18T21:28:58.765Z,100040.41
2022-08-18T21:31:44.161Z,100047.19
2022-08-18T21:34:14.443Z,100040.94
2022-08-18T21:36:54.538Z,100038.41
2022-08-18T21:39:22.619Z,100032.09
2022-08-18T21:41:54.534Z,100027.06
2022-08-18T21:44:42.823Z,100029.59
2022-08-18T21:47:26.576Z,100028.34
2022-08-18T21:50:17.985Z,100028.84
2022-08-18T21:53:02.391Z,100027.53
2022-08-18T21:55:30.367Z,100033.81
2022-08-18T21:58:16.922Z,100033.44
2022-08-18T22:01:22.582Z,100030.56
2022-08-18T22:03:59.319Z,100027.44
2022-08-18T22:06:34.443Z,100024.31
2022-08-18T22:09:30.101Z,100026.00
2022-08-18T22:12:54.818Z,100027.03
2022-08-18T22:15:39.427Z,100016.19
2022-08-18T22:18:18.722Z,100023.34
2022-08-18T22:20:57.461Z,100030.97
2022-08-18T22:24:12.349Z,100031.00
2022-08-18T22:26:40.408Z,100018.09
2022-08-18T22:29:19.767Z,100021.59
2022-08-18T22:31:50.127Z,100019.25
2022-08-18T22:34:28.165Z,100010.72
2022-08-18T22:37:00.863Z,100012.31
2022-08-18T22:39:57.001Z,100017.41
2022-08-18T22:42:27.577Z,100001.06
2022-08-18T22:44:57.989Z,99997.69
2022-08-18T22:47:29.353Z,100001.13
2022-08-18T22:49:57.442Z,100002.19
2022-08-18T22:52:29.895Z,99998.16
2022-08-18T22:54:59.628Z,100000.22
2022-08-18T22:57:33.848Z,100002.06
2022-08-18T23:00:09.147Z,99994.66
2022-08-18T23:02:37.577Z,100007.31
2022-08-18T23:05:05.775Z,99994.22
2022-08-18T23:07:34.237Z,99980.75
2022-08-18T23:10:01.813Z,99995.03
2022-08-18T23:12:29.224Z,100000.75
2022-08-18T23:14:56.416Z,100002.88
2022-08-18T23:17:23.615Z,100003.03
2022-08-18T23:19:52.222Z,99995.41
2022-08-18T23:22:19.722Z,99989.13
2022-08-18T23:24:48.525Z,99989.94
2022-08-18T23:27:16.946Z,99980.69
2022-08-18T23:29:44.137Z,99986.72
2022-08-18T23:32:11.346Z,99980.16
2022-08-18T23:34:38.817Z,99973.47
2022-08-18T23:37:09.718Z,99977.94
2022-08-18T23:39:39.504Z,99969.13
2022-08-18T23:42:13.195Z,99965.75
2022-08-18T23:44:41.083Z,99960.75
2022-08-18T23:47:08.338Z,99966.31
2022-08-18T23:49:36.865Z,99965.69
2022-08-18T23:52:05.801Z,99963.78
2022-08-18T23:54:35.128Z,99974.13
2022-08-18T23:57:02.793Z,99957.88
2022-08-18T23:59:30.171Z,99959.38
